Time Latitude Longitude Accuracy (66% radius in meters) Altitude (meters) Speed (km/hour) Bearing (degrees) Battery (%) GPS flag
11:18:57 56.387832 43.737373 25.799999237061 76.5 0 16.760000228882 82 1 delete
11:18:47 56.387832 43.737373 22.200000762939 76.5 0 16.760000228882 82 1 delete
11:18:36 56.387832 43.737373 34.299999237061 76.5 0 16.760000228882 82 1 delete
11:18:35 56.387835 43.737370 34.700000762939 76.5 0 16.760000228882 82 1 delete
11:18:30 56.387880 43.737558 51.400001525879 78.4 0 38.590000152588 82 1 delete
11:18:25 56.387800 43.737238 65.599998474121 79.9 0 31.889999389648 82 1 delete
11:18:13 56.387757 43.737072 0 79.9 0 16.579999923706 82 1 delete
11:18:11 56.387757 43.737072 82 79.9 0 16.579999923706 82 1 delete
12:18:04 56.387890 43.737283 0 80.4 0 38.860000610352 82 0 delete
11:17:53 56.387890 43.737283 0 80.4 0 38.860000610352 82 1 delete
11:17:37 56.387807 43.737193 84.900001525879 77.5 0 13.109999656677 82 1 delete
12:17:32 56.387753 43.737362 0 80.9 0 70.199996948242 82 0 delete
12:17:21 56.387753 43.737362 0 80.9 0 70.199996948242 82 0 delete
12:17:11 56.387753 43.737362 0 80.9 0 70.199996948242 82 0 delete
12:17:00 56.387753 43.737362 0 80.9 0 70.199996948242 82 0 delete
12:16:49 56.387753 43.737362 0 80.9 0 70.199996948242 82 0 delete
12:16:38 56.387753 43.737362 0 80.9 0 70.199996948242 82 0 delete
12:16:27 56.387753 43.737362 0 80.9 0 70.199996948242 82 0 delete
11:16:07 56.387762 43.737357 0 80.8 0 68.970001220703 82 1 delete
11:16:05 56.387760 43.737363 0 80.8 0 68.180000305176 82 1 delete
11:15:55 56.387753 43.737362 0 80.9 0 70.199996948242 82 1 delete
11:15:53 56.387757 43.737318 0 80.9 0 60.090000152588 82 1 delete
11:15:39 56.387723 43.737187 44.700000762939 80.8 0 26.809999465942 82 1 delete
11:15:29 56.387608 43.737027 36.5 80.9 0 79.370002746582 82 1 delete
11:15:21 56.387608 43.737027 29 80.9 0 79.370002746582 82 1 delete
11:15:09 56.387608 43.737027 26.299999237061 80.9 0 79.370002746582 82 1 delete
11:14:59 56.387608 43.737027 32.599998474121 80.9 0 79.370002746582 82 1 delete
11:14:47 56.387607 43.737023 23.700000762939 80.9 0 79.370002746582 82 1 delete
11:14:37 56.387578 43.736965 22.5 80.9 0 79.370002746582 82 1 delete
11:14:27 56.387542 43.737012 25.200000762939 81 0 79.370002746582 82 1 delete
11:14:15 56.387542 43.737012 24.299999237061 81 0 79.370002746582 82 1 delete
11:14:05 56.387542 43.737012 26.299999237061 81 0 79.370002746582 82 1 delete
11:13:53 56.387542 43.737012 26.89999961853 81 0 79.370002746582 82 1 delete
11:13:43 56.387565 43.737050 21.5 81 0 79.370002746582 82 1 delete
11:13:39 56.387570 43.737068 20.700000762939 80.9 0 79.370002746582 82 1 delete
11:13:31 56.387587 43.737110 17.89999961853 80.9 0 79.370002746582 82 1 delete
11:13:21 56.387625 43.737137 13 80.9 0 79.370002746582 82 1 delete
11:13:15 56.387650 43.737160 10.699999809265 80.9 0 79.370002746582 82 1 delete
11:13:09 56.387677 43.737127 10 80.9 0 79.370002746582 82 1 delete
11:12:59 56.387677 43.737127 10 80.9 0 79.370002746582 82 1 delete
11:12:47 56.387677 43.737127 9.8000001907349 80.9 0 79.370002746582 82 1 delete
11:12:37 56.387677 43.737127 9.8999996185303 80.9 0 79.370002746582 82 1 delete
11:12:25 56.387685 43.737105 9.5 80.9 0 79.370002746582 82 1 delete
11:12:15 56.387688 43.737068 9.8999996185303 81 0 79.370002746582 82 1 delete
11:12:05 56.387688 43.737068 10.60000038147 81 0 79.370002746582 82 1 delete
11:11:53 56.387688 43.737068 11.699999809265 81 0 79.370002746582 82 1 delete
11:11:43 56.387698 43.737085 12.10000038147 81 0 79.370002746582 82 1 delete
11:11:31 56.387725 43.737152 11.10000038147 80 0 79.370002746582 82 1 delete
11:11:21 56.387725 43.737152 13.39999961853 80 0 79.370002746582 82 1 delete
11:11:13 56.387735 43.737070 14 78.5 2.2534539699554 66.440002441406 82 1 delete